sensor_id;sensor_type;location;lat;lon;timestamp;temperature;humidity
73777;DHT22;62088;50.240;2.696;2023-08-17T00:00:16;18.60;73.10
73777;DHT22;62088;50.240;2.696;2023-08-17T00:03:03;18.50;73.20
73777;DHT22;62088;50.240;2.696;2023-08-17T00:05:30;18.60;73.30
73777;DHT22;62088;50.240;2.696;2023-08-17T00:08:00;18.50;73.40
73777;DHT22;62088;50.240;2.696;2023-08-17T00:10:30;18.50;73.50
73777;DHT22;62088;50.240;2.696;2023-08-17T00:12:57;18.50;73.50
73777;DHT22;62088;50.240;2.696;2023-08-17T00:15:24;18.50;73.60
73777;DHT22;62088;50.240;2.696;2023-08-17T00:17:51;18.50;73.70
73777;DHT22;62088;50.240;2.696;2023-08-17T00:20:18;18.40;73.70
73777;DHT22;62088;50.240;2.696;2023-08-17T00:22:45;18.40;73.80
73777;DHT22;62088;50.240;2.696;2023-08-17T00:25:14;18.40;73.90
73777;DHT22;62088;50.240;2.696;2023-08-17T00:27:41;18.40;74.00
73777;DHT22;62088;50.240;2.696;2023-08-17T00:30:08;18.40;74.10
73777;DHT22;62088;50.240;2.696;2023-08-17T00:32:36;18.40;74.20
73777;DHT22;62088;50.240;2.696;2023-08-17T00:35:03;18.30;74.30
73777;DHT22;62088;50.240;2.696;2023-08-17T00:37:30;18.30;74.40
73777;DHT22;62088;50.240;2.696;2023-08-17T00:39:58;18.30;74.40
73777;DHT22;62088;50.240;2.696;2023-08-17T00:42:25;18.30;74.50
73777;DHT22;62088;50.240;2.696;2023-08-17T00:44:52;18.30;74.50
73777;DHT22;62088;50.240;2.696;2023-08-17T00:47:19;18.20;74.50
73777;DHT22;62088;50.240;2.696;2023-08-17T00:49:46;18.20;74.50
73777;DHT22;62088;50.240;2.696;2023-08-17T00:52:13;18.20;74.50
73777;DHT22;62088;50.240;2.696;2023-08-17T00:54:41;18.20;74.40
73777;DHT22;62088;50.240;2.696;2023-08-17T00:57:09;18.20;74.40
73777;DHT22;62088;50.240;2.696;2023-08-17T00:59:36;18.20;74.40
73777;DHT22;62088;50.240;2.696;2023-08-17T01:02:04;18.20;74.30
73777;DHT22;62088;50.240;2.696;2023-08-17T01:04:32;18.10;74.30
73777;DHT22;62088;50.240;2.696;2023-08-17T01:06:59;18.10;74.30
73777;DHT22;62088;50.240;2.696;2023-08-17T01:09:26;18.20;74.20
73777;DHT22;62088;50.240;2.696;2023-08-17T01:17:29;18.10;74.40
73777;DHT22;62088;50.240;2.696;2023-08-17T01:19:58;18.10;74.40
73777;DHT22;62088;50.240;2.696;2023-08-17T01:22:26;18.00;74.40
73777;DHT22;62088;50.240;2.696;2023-08-17T01:24:55;18.00;74.30
73777;DHT22;62088;50.240;2.696;2023-08-17T01:27:26;18.00;74.40
73777;DHT22;62088;50.240;2.696;2023-08-17T01:29:53;18.00;74.50
73777;DHT22;62088;50.240;2.696;2023-08-17T01:35:04;17.90;74.50
73777;DHT22;62088;50.240;2.696;2023-08-17T01:37:34;17.90;74.60
73777;DHT22;62088;50.240;2.696;2023-08-17T01:40:03;17.90;74.60
73777;DHT22;62088;50.240;2.696;2023-08-17T01:42:32;17.90;74.60
73777;DHT22;62088;50.240;2.696;2023-08-17T01:44:59;17.90;74.60
73777;DHT22;62088;50.240;2.696;2023-08-17T01:47:27;17.80;74.60
73777;DHT22;62088;50.240;2.696;2023-08-17T01:49:54;17.80;74.70
73777;DHT22;62088;50.240;2.696;2023-08-17T01:52:27;17.80;74.60
73777;DHT22;62088;50.240;2.696;2023-08-17T01:54:55;17.70;74.60
73777;DHT22;62088;50.240;2.696;2023-08-17T01:57:22;17.70;74.60
73777;DHT22;62088;50.240;2.696;2023-08-17T01:59:49;17.70;74.60
73777;DHT22;62088;50.240;2.696;2023-08-17T02:02:16;17.70;74.60
73777;DHT22;62088;50.240;2.696;2023-08-17T02:04:44;17.70;74.60
73777;DHT22;62088;50.240;2.696;2023-08-17T02:07:11;17.60;74.70
73777;DHT22;62088;50.240;2.696;2023-08-17T02:09:38;17.60;74.80
73777;DHT22;62088;50.240;2.696;2023-08-17T02:12:06;17.60;74.80
73777;DHT22;62088;50.240;2.696;2023-08-17T02:14:33;17.50;74.90
73777;DHT22;62088;50.240;2.696;2023-08-17T02:17:00;17.50;74.90
73777;DHT22;62088;50.240;2.696;2023-08-17T02:19:27;17.50;74.80
73777;DHT22;62088;50.240;2.696;2023-08-17T02:21:54;17.50;74.90
73777;DHT22;62088;50.240;2.696;2023-08-17T02:24:21;17.40;74.90
73777;DHT22;62088;50.240;2.696;2023-08-17T02:26:51;17.40;74.80
73777;DHT22;62088;50.240;2.696;2023-08-17T02:29:18;17.40;74.90
73777;DHT22;62088;50.240;2.696;2023-08-17T02:31:45;17.40;74.90
73777;DHT22;62088;50.240;2.696;2023-08-17T02:34:12;17.40;74.90
73777;DHT22;62088;50.240;2.696;2023-08-17T02:36:39;17.40;75.00
73777;DHT22;62088;50.240;2.696;2023-08-17T02:39:06;17.40;75.10
73777;DHT22;62088;50.240;2.696;2023-08-17T02:41:33;17.40;75.20
73777;DHT22;62088;50.240;2.696;2023-08-17T02:44:01;17.40;75.20
73777;DHT22;62088;50.240;2.696;2023-08-17T02:46:29;17.30;75.20
73777;DHT22;62088;50.240;2.696;2023-08-17T02:48:56;17.30;75.30
73777;DHT22;62088;50.240;2.696;2023-08-17T02:51:23;17.30;75.40
73777;DHT22;62088;50.240;2.696;2023-08-17T02:53:50;17.30;75.40
73777;DHT22;62088;50.240;2.696;2023-08-17T02:56:17;17.30;75.40
73777;DHT22;62088;50.240;2.696;2023-08-17T02:58:44;17.30;75.30
73777;DHT22;62088;50.240;2.696;2023-08-17T03:01:11;17.20;75.30
73777;DHT22;62088;50.240;2.696;2023-08-17T03:03:38;17.20;75.30
73777;DHT22;62088;50.240;2.696;2023-08-17T03:06:07;17.20;75.30
73777;DHT22;62088;50.240;2.696;2023-08-17T03:08:34;17.20;75.30
73777;DHT22;62088;50.240;2.696;2023-08-17T03:11:01;17.20;75.30
73777;DHT22;62088;50.240;2.696;2023-08-17T03:13:28;17.20;75.30
73777;DHT22;62088;50.240;2.696;2023-08-17T03:15:55;17.20;75.30
73777;DHT22;62088;50.240;2.696;2023-08-17T03:18:22;17.20;75.30
73777;DHT22;62088;50.240;2.696;2023-08-17T03:20:49;17.10;75.30
73777;DHT22;62088;50.240;2.696;2023-08-17T03:23:16;17.10;75.30
73777;DHT22;62088;50.240;2.696;2023-08-17T03:25:44;17.10;75.30
73777;DHT22;62088;50.240;2.696;2023-08-17T03:28:13;17.10;75.30
73777;DHT22;62088;50.240;2.696;2023-08-17T03:30:41;17.00;75.30
73777;DHT22;62088;50.240;2.696;2023-08-17T03:33:09;17.00;75.40
73777;DHT22;62088;50.240;2.696;2023-08-17T03:35:36;17.00;75.50
73777;DHT22;62088;50.240;2.696;2023-08-17T03:38:03;17.00;75.50
73777;DHT22;62088;50.240;2.696;2023-08-17T03:40:31;17.00;75.50
73777;DHT22;62088;50.240;2.696;2023-08-17T03:42:58;16.90;75.60
73777;DHT22;62088;50.240;2.696;2023-08-17T03:45:25;16.90;75.50
73777;DHT22;62088;50.240;2.696;2023-08-17T03:47:52;16.90;75.50
73777;DHT22;62088;50.240;2.696;2023-08-17T03:50:20;16.90;75.50
73777;DHT22;62088;50.240;2.696;2023-08-17T03:52:48;16.90;75.40
73777;DHT22;62088;50.240;2.696;2023-08-17T03:55:16;16.90;75.40
73777;DHT22;62088;50.240;2.696;2023-08-17T03:57:43;16.90;75.40
73777;DHT22;62088;50.240;2.696;2023-08-17T04:00:10;16.90;75.40
73777;DHT22;62088;50.240;2.696;2023-08-17T04:02:40;16.90;75.40
73777;DHT22;62088;50.240;2.696;2023-08-17T04:05:10;16.90;75.40
73777;DHT22;62088;50.240;2.696;2023-08-17T04:07:37;16.90;75.40
73777;DHT22;62088;50.240;2.696;2023-08-17T04:10:07;16.80;75.40
73777;DHT22;62088;50.240;2.696;2023-08-17T04:12:34;16.80;75.40
73777;DHT22;62088;50.240;2.696;2023-08-17T04:15:01;16.80;75.50
73777;DHT22;62088;50.240;2.696;2023-08-17T04:17:28;16.80;75.60
73777;DHT22;62088;50.240;2.696;2023-08-17T04:19:56;16.80;75.70
73777;DHT22;62088;50.240;2.696;2023-08-17T04:22:23;16.80;75.70
73777;DHT22;62088;50.240;2.696;2023-08-17T04:24:50;16.70;75.70
73777;DHT22;62088;50.240;2.696;2023-08-17T04:27:17;16.70;75.70
73777;DHT22;62088;50.240;2.696;2023-08-17T04:29:45;16.70;75.70
73777;DHT22;62088;50.240;2.696;2023-08-17T04:32:16;16.70;75.80
73777;DHT22;62088;50.240;2.696;2023-08-17T04:34:44;16.60;75.90
73777;DHT22;62088;50.240;2.696;2023-08-17T04:37:14;16.60;76.00
73777;DHT22;62088;50.240;2.696;2023-08-17T04:39:41;16.60;76.10
73777;DHT22;62088;50.240;2.696;2023-08-17T04:42:14;16.60;76.20
73777;DHT22;62088;50.240;2.696;2023-08-17T04:44:42;16.50;76.30
73777;DHT22;62088;50.240;2.696;2023-08-17T04:47:09;16.50;76.30
73777;DHT22;62088;50.240;2.696;2023-08-17T04:49:37;16.50;76.40
73777;DHT22;62088;50.240;2.696;2023-08-17T04:52:05;16.50;76.50
73777;DHT22;62088;50.240;2.696;2023-08-17T04:54:33;16.40;76.50
73777;DHT22;62088;50.240;2.696;2023-08-17T04:57:00;16.40;76.60
73777;DHT22;62088;50.240;2.696;2023-08-17T04:59:28;16.40;76.60
73777;DHT22;62088;50.240;2.696;2023-08-17T05:01:55;16.40;76.70
73777;DHT22;62088;50.240;2.696;2023-08-17T05:04:22;16.40;76.80
73777;DHT22;62088;50.240;2.696;2023-08-17T05:06:49;16.40;76.80
73777;DHT22;62088;50.240;2.696;2023-08-17T05:09:16;16.40;76.90
73777;DHT22;62088;50.240;2.696;2023-08-17T05:11:43;16.40;76.90
73777;DHT22;62088;50.240;2.696;2023-08-17T05:14:10;16.40;77.00
73777;DHT22;62088;50.240;2.696;2023-08-17T05:16:38;16.30;77.00
73777;DHT22;62088;50.240;2.696;2023-08-17T05:19:05;16.30;77.10
73777;DHT22;62088;50.240;2.696;2023-08-17T05:21:32;16.30;77.20
73777;DHT22;62088;50.240;2.696;2023-08-17T05:23:59;16.30;77.20
73777;DHT22;62088;50.240;2.696;2023-08-17T05:26:26;16.30;77.30
73777;DHT22;62088;50.240;2.696;2023-08-17T05:28:54;16.30;77.40
73777;DHT22;62088;50.240;2.696;2023-08-17T05:31:23;16.30;77.50
73777;DHT22;62088;50.240;2.696;2023-08-17T05:33:51;16.40;77.50
73777;DHT22;62088;50.240;2.696;2023-08-17T05:36:20;16.30;77.70
73777;DHT22;62088;50.240;2.696;2023-08-17T05:38:47;16.40;77.90
73777;DHT22;62088;50.240;2.696;2023-08-17T05:41:14;16.40;78.00
73777;DHT22;62088;50.240;2.696;2023-08-17T05:43:43;16.40;78.10
73777;DHT22;62088;50.240;2.696;2023-08-17T05:46:11;16.40;78.10
73777;DHT22;62088;50.240;2.696;2023-08-17T05:48:38;16.40;78.20
73777;DHT22;62088;50.240;2.696;2023-08-17T05:51:06;16.40;78.20
73777;DHT22;62088;50.240;2.696;2023-08-17T05:53:33;16.50;78.40
73777;DHT22;62088;50.240;2.696;2023-08-17T05:56:00;16.40;78.40
73777;DHT22;62088;50.240;2.696;2023-08-17T05:58:27;16.50;78.50
73777;DHT22;62088;50.240;2.696;2023-08-17T06:00:54;16.50;78.60
73777;DHT22;62088;50.240;2.696;2023-08-17T06:03:21;16.50;78.70
73777;DHT22;62088;50.240;2.696;2023-08-17T06:05:52;16.60;78.80
73777;DHT22;62088;50.240;2.696;2023-08-17T06:08:20;16.60;79.00
73777;DHT22;62088;50.240;2.696;2023-08-17T06:10:47;16.60;79.20
73777;DHT22;62088;50.240;2.696;2023-08-17T06:13:14;16.70;79.20
73777;DHT22;62088;50.240;2.696;2023-08-17T06:15:41;16.70;79.40
73777;DHT22;62088;50.240;2.696;2023-08-17T06:18:08;16.70;79.60
73777;DHT22;62088;50.240;2.696;2023-08-17T06:20:35;16.80;79.70
73777;DHT22;62088;50.240;2.696;2023-08-17T06:23:02;16.80;79.90
73777;DHT22;62088;50.240;2.696;2023-08-17T06:25:29;16.90;80.10
73777;DHT22;62088;50.240;2.696;2023-08-17T06:27:56;16.90;80.40
73777;DHT22;62088;50.240;2.696;2023-08-17T06:30:23;17.00;80.70
73777;DHT22;62088;50.240;2.696;2023-08-17T06:32:51;17.10;80.90
73777;DHT22;62088;50.240;2.696;2023-08-17T06:35:18;17.10;81.10
73777;DHT22;62088;50.240;2.696;2023-08-17T06:37:45;17.20;81.30
73777;DHT22;62088;50.240;2.696;2023-08-17T06:40:12;17.30;81.50
73777;DHT22;62088;50.240;2.696;2023-08-17T06:42:39;17.40;81.40
73777;DHT22;62088;50.240;2.696;2023-08-17T06:45:07;17.40;81.30
73777;DHT22;62088;50.240;2.696;2023-08-17T06:47:34;17.50;81.20
73777;DHT22;62088;50.240;2.696;2023-08-17T06:50:01;17.50;81.20
73777;DHT22;62088;50.240;2.696;2023-08-17T06:52:28;17.60;81.10
73777;DHT22;62088;50.240;2.696;2023-08-17T06:54:55;17.60;80.90
73777;DHT22;62088;50.240;2.696;2023-08-17T06:57:23;17.70;80.80
73777;DHT22;62088;50.240;2.696;2023-08-17T06:59:50;17.80;80.80
73777;DHT22;62088;50.240;2.696;2023-08-17T07:02:17;17.90;80.70
73777;DHT22;62088;50.240;2.696;2023-08-17T07:04:44;17.90;80.70
73777;DHT22;62088;50.240;2.696;2023-08-17T07:07:11;17.90;80.60
73777;DHT22;62088;50.240;2.696;2023-08-17T07:09:38;18.00;80.30
73777;DHT22;62088;50.240;2.696;2023-08-17T07:12:06;18.10;80.00
73777;DHT22;62088;50.240;2.696;2023-08-17T07:14:33;18.10;79.80
73777;DHT22;62088;50.240;2.696;2023-08-17T07:17:02;18.20;79.80
73777;DHT22;62088;50.240;2.696;2023-08-17T07:19:29;18.20;79.60
73777;DHT22;62088;50.240;2.696;2023-08-17T07:22:16;18.30;79.50
73777;DHT22;62088;50.240;2.696;2023-08-17T07:24:46;18.40;79.30
73777;DHT22;62088;50.240;2.696;2023-08-17T07:27:13;18.40;79.30
73777;DHT22;62088;50.240;2.696;2023-08-17T07:29:40;18.40;79.10
73777;DHT22;62088;50.240;2.696;2023-08-17T07:32:07;18.50;78.80
73777;DHT22;62088;50.240;2.696;2023-08-17T07:34:35;18.50;78.70
73777;DHT22;62088;50.240;2.696;2023-08-17T07:37:04;18.60;78.60
73777;DHT22;62088;50.240;2.696;2023-08-17T07:39:32;18.70;78.60
73777;DHT22;62088;50.240;2.696;2023-08-17T07:41:59;18.70;78.50
73777;DHT22;62088;50.240;2.696;2023-08-17T07:44:26;18.80;78.30
73777;DHT22;62088;50.240;2.696;2023-08-17T07:46:55;18.80;78.20
73777;DHT22;62088;50.240;2.696;2023-08-17T07:49:22;18.90;78.20
73777;DHT22;62088;50.240;2.696;2023-08-17T07:51:58;18.90;78.20
73777;DHT22;62088;50.240;2.696;2023-08-17T07:54:26;18.90;78.10
73777;DHT22;62088;50.240;2.696;2023-08-17T07:56:53;19.00;78.10
73777;DHT22;62088;50.240;2.696;2023-08-17T07:59:20;19.00;78.00
73777;DHT22;62088;50.240;2.696;2023-08-17T08:01:47;19.10;78.00
73777;DHT22;62088;50.240;2.696;2023-08-17T08:04:14;19.10;78.10
73777;DHT22;62088;50.240;2.696;2023-08-17T08:06:42;19.20;78.00
73777;DHT22;62088;50.240;2.696;2023-08-17T08:09:09;19.20;77.80
73777;DHT22;62088;50.240;2.696;2023-08-17T08:11:36;19.40;77.70
73777;DHT22;62088;50.240;2.696;2023-08-17T08:14:03;19.40;77.70
73777;DHT22;62088;50.240;2.696;2023-08-17T08:16:31;19.50;77.70
73777;DHT22;62088;50.240;2.696;2023-08-17T08:18:58;19.60;77.60
73777;DHT22;62088;50.240;2.696;2023-08-17T08:21:25;19.70;77.30
73777;DHT22;62088;50.240;2.696;2023-08-17T08:23:54;19.70;77.10
73777;DHT22;62088;50.240;2.696;2023-08-17T08:26:21;19.90;76.60
73777;DHT22;62088;50.240;2.696;2023-08-17T08:28:48;19.90;76.30
73777;DHT22;62088;50.240;2.696;2023-08-17T08:31:15;19.90;75.90
73777;DHT22;62088;50.240;2.696;2023-08-17T08:33:43;20.00;75.70
73777;DHT22;62088;50.240;2.696;2023-08-17T08:36:10;20.10;75.50
73777;DHT22;62088;50.240;2.696;2023-08-17T08:38:37;20.20;75.40
73777;DHT22;62088;50.240;2.696;2023-08-17T08:41:05;20.30;75.40
73777;DHT22;62088;50.240;2.696;2023-08-17T08:43:35;20.30;75.30
73777;DHT22;62088;50.240;2.696;2023-08-17T08:46:03;20.40;75.20
73777;DHT22;62088;50.240;2.696;2023-08-17T08:48:31;20.40;75.10
73777;DHT22;62088;50.240;2.696;2023-08-17T08:51:03;20.50;75.00
73777;DHT22;62088;50.240;2.696;2023-08-17T08:53:38;20.60;74.90
73777;DHT22;62088;50.240;2.696;2023-08-17T08:56:10;20.80;74.60
73777;DHT22;62088;50.240;2.696;2023-08-17T08:58:40;20.90;74.40
73777;DHT22;62088;50.240;2.696;2023-08-17T09:01:10;21.00;74.40
73777;DHT22;62088;50.240;2.696;2023-08-17T09:03:38;21.10;74.20
73777;DHT22;62088;50.240;2.696;2023-08-17T09:06:05;21.20;73.60
73777;DHT22;62088;50.240;2.696;2023-08-17T09:08:34;21.30;73.00
73777;DHT22;62088;50.240;2.696;2023-08-17T09:11:01;21.40;72.80
73777;DHT22;62088;50.240;2.696;2023-08-17T09:13:28;21.40;72.70
73777;DHT22;62088;50.240;2.696;2023-08-17T09:15:59;21.50;72.60
73777;DHT22;62088;50.240;2.696;2023-08-17T09:18:34;21.60;72.60
73777;DHT22;62088;50.240;2.696;2023-08-17T09:21:04;21.70;72.50
73777;DHT22;62088;50.240;2.696;2023-08-17T09:23:31;21.80;72.50
73777;DHT22;62088;50.240;2.696;2023-08-17T09:26:08;21.80;72.40
73777;DHT22;62088;50.240;2.696;2023-08-17T09:28:38;21.90;72.20
73777;DHT22;62088;50.240;2.696;2023-08-17T09:31:06;22.10;71.60
73777;DHT22;62088;50.240;2.696;2023-08-17T09:33:33;22.10;71.00
73777;DHT22;62088;50.240;2.696;2023-08-17T09:36:25;22.10;70.80
73777;DHT22;62088;50.240;2.696;2023-08-17T09:38:52;22.20;70.90
73777;DHT22;62088;50.240;2.696;2023-08-17T09:41:19;22.20;70.70
73777;DHT22;62088;50.240;2.696;2023-08-17T09:43:47;22.30;70.50
73777;DHT22;62088;50.240;2.696;2023-08-17T09:46:14;22.40;70.50
73777;DHT22;62088;50.240;2.696;2023-08-17T09:48:43;22.40;70.40
73777;DHT22;62088;50.240;2.696;2023-08-17T09:51:15;22.40;70.30
73777;DHT22;62088;50.240;2.696;2023-08-17T09:53:43;22.50;70.40
73777;DHT22;62088;50.240;2.696;2023-08-17T09:56:10;22.60;70.20
73777;DHT22;62088;50.240;2.696;2023-08-17T09:58:43;22.60;69.90
73777;DHT22;62088;50.240;2.696;2023-08-17T10:01:11;22.70;69.60
73777;DHT22;62088;50.240;2.696;2023-08-17T10:03:43;22.80;69.60
73777;DHT22;62088;50.240;2.696;2023-08-17T10:06:20;22.80;69.50
73777;DHT22;62088;50.240;2.696;2023-08-17T10:08:54;22.80;68.70
73777;DHT22;62088;50.240;2.696;2023-08-17T10:11:24;22.90;68.40
73777;DHT22;62088;50.240;2.696;2023-08-17T10:13:59;22.90;68.30
73777;DHT22;62088;50.240;2.696;2023-08-17T10:16:29;22.90;68.40
73777;DHT22;62088;50.240;2.696;2023-08-17T10:22:47;23.00;68.40
73777;DHT22;62088;50.240;2.696;2023-08-17T10:24:47;23.10;68.00
73777;DHT22;62088;50.240;2.696;2023-08-17T10:27:15;23.10;68.00
73777;DHT22;62088;50.240;2.696;2023-08-17T10:29:43;23.10;67.70
73777;DHT22;62088;50.240;2.696;2023-08-17T10:32:12;23.20;67.80
73777;DHT22;62088;50.240;2.696;2023-08-17T10:34:42;23.30;67.90
73777;DHT22;62088;50.240;2.696;2023-08-17T10:37:11;23.20;67.50
73777;DHT22;62088;50.240;2.696;2023-08-17T10:39:48;23.30;67.20
73777;DHT22;62088;50.240;2.696;2023-08-17T10:42:15;23.30;67.30
73777;DHT22;62088;50.240;2.696;2023-08-17T10:44:56;23.30;67.60
73777;DHT22;62088;50.240;2.696;2023-08-17T10:47:28;23.30;67.80
73777;DHT22;62088;50.240;2.696;2023-08-17T10:50:06;23.40;67.70
73777;DHT22;62088;50.240;2.696;2023-08-17T10:52:36;23.40;67.40
73777;DHT22;62088;50.240;2.696;2023-08-17T10:55:08;23.50;67.10
73777;DHT22;62088;50.240;2.696;2023-08-17T10:57:38;23.60;66.90
73777;DHT22;62088;50.240;2.696;2023-08-17T11:02:38;23.60;66.30
73777;DHT22;62088;50.240;2.696;2023-08-17T11:05:07;23.60;66.40
73777;DHT22;62088;50.240;2.696;2023-08-17T11:07:44;23.70;66.90
73777;DHT22;62088;50.240;2.696;2023-08-17T11:12:47;23.90;66.90
73777;DHT22;62088;50.240;2.696;2023-08-17T11:15:19;23.90;66.60
73777;DHT22;62088;50.240;2.696;2023-08-17T11:17:46;23.90;66.10
73777;DHT22;62088;50.240;2.696;2023-08-17T11:20:13;23.90;65.70
73777;DHT22;62088;50.240;2.696;2023-08-17T11:22:41;24.00;65.80
73777;DHT22;62088;50.240;2.696;2023-08-17T11:25:08;24.10;65.80
73777;DHT22;62088;50.240;2.696;2023-08-17T11:27:35;24.10;65.90
73777;DHT22;62088;50.240;2.696;2023-08-17T11:30:05;24.10;65.80
73777;DHT22;62088;50.240;2.696;2023-08-17T11:32:32;24.20;65.70
73777;DHT22;62088;50.240;2.696;2023-08-17T11:34:59;24.30;65.60
73777;DHT22;62088;50.240;2.696;2023-08-17T11:37:26;24.30;65.50
73777;DHT22;62088;50.240;2.696;2023-08-17T11:39:53;24.40;65.20
73777;DHT22;62088;50.240;2.696;2023-08-17T11:42:22;24.40;64.80
73777;DHT22;62088;50.240;2.696;2023-08-17T11:44:49;24.40;64.70
73777;DHT22;62088;50.240;2.696;2023-08-17T11:47:16;24.50;64.60
73777;DHT22;62088;50.240;2.696;2023-08-17T11:49:48;24.50;64.60
73777;DHT22;62088;50.240;2.696;2023-08-17T11:52:16;24.50;64.60
73777;DHT22;62088;50.240;2.696;2023-08-17T11:54:43;24.50;64.60
73777;DHT22;62088;50.240;2.696;2023-08-17T11:57:10;24.50;64.40
73777;DHT22;62088;50.240;2.696;2023-08-17T11:59:37;24.50;64.40
73777;DHT22;62088;50.240;2.696;2023-08-17T12:02:05;24.50;64.60
73777;DHT22;62088;50.240;2.696;2023-08-17T12:04:32;24.50;64.60
73777;DHT22;62088;50.240;2.696;2023-08-17T12:07:00;24.50;64.90
73777;DHT22;62088;50.240;2.696;2023-08-17T12:09:27;24.50;65.00
73777;DHT22;62088;50.240;2.696;2023-08-17T12:12:01;24.50;64.70
73777;DHT22;62088;50.240;2.696;2023-08-17T12:14:28;24.60;64.70
73777;DHT22;62088;50.240;2.696;2023-08-17T12:16:55;24.60;64.90
73777;DHT22;62088;50.240;2.696;2023-08-17T12:19:26;24.60;64.70
73777;DHT22;62088;50.240;2.696;2023-08-17T12:21:54;24.60;64.70
73777;DHT22;62088;50.240;2.696;2023-08-17T12:24:23;24.50;64.50
73777;DHT22;62088;50.240;2.696;2023-08-17T12:26:50;24.50;64.50
73777;DHT22;62088;50.240;2.696;2023-08-17T12:29:20;24.50;64.40
73777;DHT22;62088;50.240;2.696;2023-08-17T12:31:47;24.50;64.50
73777;DHT22;62088;50.240;2.696;2023-08-17T12:34:14;24.40;64.50
73777;DHT22;62088;50.240;2.696;2023-08-17T12:36:43;24.40;64.50
73777;DHT22;62088;50.240;2.696;2023-08-17T12:39:10;24.40;64.10
73777;DHT22;62088;50.240;2.696;2023-08-17T12:41:37;24.30;64.20
73777;DHT22;62088;50.240;2.696;2023-08-17T12:44:04;24.30;64.60
73777;DHT22;62088;50.240;2.696;2023-08-17T12:46:31;24.30;64.50
73777;DHT22;62088;50.240;2.696;2023-08-17T12:48:59;24.30;64.50
73777;DHT22;62088;50.240;2.696;2023-08-17T12:51:26;24.40;64.90
73777;DHT22;62088;50.240;2.696;2023-08-17T12:53:53;24.50;65.40
73777;DHT22;62088;50.240;2.696;2023-08-17T12:56:20;24.50;64.90
73777;DHT22;62088;50.240;2.696;2023-08-17T12:58:47;24.60;64.60
73777;DHT22;62088;50.240;2.696;2023-08-17T13:01:15;24.60;64.30
73777;DHT22;62088;50.240;2.696;2023-08-17T13:03:42;24.60;64.20
73777;DHT22;62088;50.240;2.696;2023-08-17T13:06:09;24.60;64.30
73777;DHT22;62088;50.240;2.696;2023-08-17T13:08:36;24.60;64.10
73777;DHT22;62088;50.240;2.696;2023-08-17T13:11:03;24.60;64.10
73777;DHT22;62088;50.240;2.696;2023-08-17T13:13:30;24.60;64.00
73777;DHT22;62088;50.240;2.696;2023-08-17T13:15:57;24.60;63.90
73777;DHT22;62088;50.240;2.696;2023-08-17T13:18:23;24.60;63.70
73777;DHT22;62088;50.240;2.696;2023-08-17T13:20:51;24.60;63.90
73777;DHT22;62088;50.240;2.696;2023-08-17T13:23:18;24.60;64.20
73777;DHT22;62088;50.240;2.696;2023-08-17T13:25:45;24.60;64.30
73777;DHT22;62088;50.240;2.696;2023-08-17T13:28:12;24.60;64.40
73777;DHT22;62088;50.240;2.696;2023-08-17T13:30:39;24.60;64.40
73777;DHT22;62088;50.240;2.696;2023-08-17T13:33:07;24.70;64.50
73777;DHT22;62088;50.240;2.696;2023-08-17T13:35:34;24.60;64.10
73777;DHT22;62088;50.240;2.696;2023-08-17T13:38:01;24.70;64.40
73777;DHT22;62088;50.240;2.696;2023-08-17T13:40:31;24.80;64.70
73777;DHT22;62088;50.240;2.696;2023-08-17T13:42:59;24.80;64.20
73777;DHT22;62088;50.240;2.696;2023-08-17T13:45:27;24.90;64.40
73777;DHT22;62088;50.240;2.696;2023-08-17T13:47:54;25.00;64.40
73777;DHT22;62088;50.240;2.696;2023-08-17T13:50:21;25.10;64.10
73777;DHT22;62088;50.240;2.696;2023-08-17T13:52:48;25.20;63.60
73777;DHT22;62088;50.240;2.696;2023-08-17T13:55:15;25.20;63.20
73777;DHT22;62088;50.240;2.696;2023-08-17T13:57:43;25.20;63.10
73777;DHT22;62088;50.240;2.696;2023-08-17T14:00:10;25.20;63.10
73777;DHT22;62088;50.240;2.696;2023-08-17T14:02:38;25.20;62.80
73777;DHT22;62088;50.240;2.696;2023-08-17T14:05:05;25.20;62.40
73777;DHT22;62088;50.240;2.696;2023-08-17T14:07:32;25.10;62.40
73777;DHT22;62088;50.240;2.696;2023-08-17T14:09:59;25.10;62.50
73777;DHT22;62088;50.240;2.696;2023-08-17T14:12:34;25.00;62.80
73777;DHT22;62088;50.240;2.696;2023-08-17T14:15:02;25.00;62.90
73777;DHT22;62088;50.240;2.696;2023-08-17T14:17:29;25.10;62.90
73777;DHT22;62088;50.240;2.696;2023-08-17T14:19:56;25.10;63.20
73777;DHT22;62088;50.240;2.696;2023-08-17T14:22:23;25.10;63.30
73777;DHT22;62088;50.240;2.696;2023-08-17T14:24:50;25.10;63.40
73777;DHT22;62088;50.240;2.696;2023-08-17T14:27:17;25.10;63.50
73777;DHT22;62088;50.240;2.696;2023-08-17T14:29:44;25.10;62.90
73777;DHT22;62088;50.240;2.696;2023-08-17T14:32:14;25.20;62.60
73777;DHT22;62088;50.240;2.696;2023-08-17T14:34:41;25.20;62.70
73777;DHT22;62088;50.240;2.696;2023-08-17T14:37:08;25.20;62.60
73777;DHT22;62088;50.240;2.696;2023-08-17T14:39:35;25.20;62.90
73777;DHT22;62088;50.240;2.696;2023-08-17T14:42:04;25.30;62.90
73777;DHT22;62088;50.240;2.696;2023-08-17T14:44:32;25.30;62.80
73777;DHT22;62088;50.240;2.696;2023-08-17T14:46:59;25.30;62.60
73777;DHT22;62088;50.240;2.696;2023-08-17T14:49:26;25.30;62.30
73777;DHT22;62088;50.240;2.696;2023-08-17T14:51:53;25.30;62.00
73777;DHT22;62088;50.240;2.696;2023-08-17T14:54:20;25.30;61.60
73777;DHT22;62088;50.240;2.696;2023-08-17T14:56:47;25.20;61.40
73777;DHT22;62088;50.240;2.696;2023-08-17T14:59:14;25.20;61.40
73777;DHT22;62088;50.240;2.696;2023-08-17T15:01:41;25.20;61.40
73777;DHT22;62088;50.240;2.696;2023-08-17T15:04:08;25.20;61.60
73777;DHT22;62088;50.240;2.696;2023-08-17T15:06:35;25.20;61.60
73777;DHT22;62088;50.240;2.696;2023-08-17T15:09:07;25.30;61.70
73777;DHT22;62088;50.240;2.696;2023-08-17T15:11:35;25.30;61.80
73777;DHT22;62088;50.240;2.696;2023-08-17T15:14:03;25.30;61.80
73777;DHT22;62088;50.240;2.696;2023-08-17T15:16:30;25.30;61.80
73777;DHT22;62088;50.240;2.696;2023-08-17T15:18:57;25.40;61.70
73777;DHT22;62088;50.240;2.696;2023-08-17T15:21:24;25.40;61.60
73777;DHT22;62088;50.240;2.696;2023-08-17T15:23:51;25.40;60.90
73777;DHT22;62088;50.240;2.696;2023-08-17T15:26:18;25.40;61.00
73777;DHT22;62088;50.240;2.696;2023-08-17T15:28:45;25.40;61.30
73777;DHT22;62088;50.240;2.696;2023-08-17T15:31:12;25.40;61.50
73777;DHT22;62088;50.240;2.696;2023-08-17T15:33:40;25.40;61.40
73777;DHT22;62088;50.240;2.696;2023-08-17T15:36:08;25.40;61.00
73777;DHT22;62088;50.240;2.696;2023-08-17T15:38:35;25.40;60.90
73777;DHT22;62088;50.240;2.696;2023-08-17T15:41:02;25.40;60.90
73777;DHT22;62088;50.240;2.696;2023-08-17T15:43:30;25.40;61.00
73777;DHT22;62088;50.240;2.696;2023-08-17T15:45:57;25.40;61.00
73777;DHT22;62088;50.240;2.696;2023-08-17T15:48:24;25.30;61.20
73777;DHT22;62088;50.240;2.696;2023-08-17T15:50:52;25.40;61.40